Terminal Aerodrome Forecast
Issued by NWS Cleveland, OH

Home | Current Version | Previous Version | Text Only | Print | Product List | Glossary Off
Versions: 1 2 3 4 5 6 7 8 9 10 11 12 13 14 15 16 17 18 19 20 21 22 23 24 25 26 27

607
FTUS41 KCLE 280533
TAFTOL
TAF
KTOL 280533Z 2806/2906 25007KT P6SM BKN035
     FM281000 21007KT P6SM BKN150
     FM282200 17008KT P6SM OVC090
     FM290300 14005KT 6SM -SHRA OVC020=

USA.gov is the U.S. government's official web portal to all federal, state and local government web resources and services.